createdAt,value
2023-01-15T11:03:22.537Z,26.15
2023-01-15T11:05:49.818Z,27.00
2023-01-15T11:11:44.876Z,25.50
2023-01-15T11:14:30.609Z,28.10
2023-01-15T11:17:16.310Z,26.33
2023-01-15T11:19:45.021Z,25.90
2023-01-15T11:22:17.607Z,24.33
2023-01-15T11:29:59.631Z,24.83
2023-01-15T11:32:34.224Z,24.92
2023-01-15T11:35:18.687Z,24.25
2023-01-15T11:37:45.548Z,23.85
2023-01-15T11:40:22.283Z,24.67
2023-01-15T11:43:09.170Z,25.08
2023-01-15T11:46:05.880Z,25.42
2023-01-15T11:49:03.406Z,25.83
2023-01-15T11:51:35.601Z,24.67
2023-01-15T11:54:05.363Z,25.77
2023-01-15T11:56:35.324Z,25.30
2023-01-15T11:59:10.808Z,23.55
2023-01-15T12:01:47.467Z,24.90
2023-01-15T12:04:26.769Z,25.73
2023-01-15T12:06:54.233Z,24.45
2023-01-15T12:09:48.861Z,25.10
2023-01-15T12:12:55.721Z,29.85
2023-01-15T12:15:55.016Z,27.83
2023-01-15T12:18:28.712Z,26.33
2023-01-15T12:21:34.676Z,25.63
2023-01-15T12:24:28.913Z,24.83
2023-01-15T12:27:30.416Z,25.80
2023-01-15T12:30:03.421Z,26.00
2023-01-15T12:32:40.318Z,27.10
2023-01-15T12:35:22.697Z,24.67
2023-01-15T12:38:01.549Z,25.45
2023-01-15T12:40:41.599Z,25.90
2023-01-15T12:43:37.812Z,26.45
2023-01-15T12:46:07.202Z,26.75
2023-01-15T12:48:37.397Z,26.48
2023-01-15T12:51:06.480Z,28.00
2023-01-15T12:53:55.816Z,27.60
2023-01-15T12:56:33.122Z,25.90
2023-01-15T12:59:18.501Z,28.02
2023-01-15T13:02:13.405Z,26.90
2023-01-15T13:04:48.091Z,28.90
2023-01-15T13:07:25.024Z,32.60
2023-01-15T13:10:10.496Z,34.00
2023-01-15T13:12:37.312Z,32.33
2023-01-15T13:15:05.167Z,34.20
2023-01-15T13:17:34.985Z,34.97
2023-01-15T13:20:23.168Z,32.97
2023-01-15T13:22:59.364Z,29.67
2023-01-15T13:25:45.827Z,30.70
2023-01-15T13:28:16.736Z,31.00
2023-01-15T13:30:52.155Z,29.17
2023-01-15T13:33:40.749Z,29.73
2023-01-15T13:36:37.080Z,29.73
2023-01-15T13:39:07.257Z,29.38
2023-01-15T13:41:53.754Z,29.63
2023-01-15T13:44:22.785Z,29.58
2023-01-15T13:47:11.120Z,32.25
2023-01-15T13:49:50.477Z,32.55
2023-01-15T13:52:31.547Z,32.40
2023-01-15T13:55:11.848Z,32.08
2023-01-15T13:57:41.094Z,34.45
2023-01-15T14:00:28.417Z,32.85
2023-01-15T14:03:04.021Z,34.00
2023-01-15T14:05:34.420Z,35.10
2023-01-15T14:08:04.121Z,35.50
2023-01-15T14:10:30.865Z,35.58
2023-01-15T14:13:15.443Z,36.67
2023-01-15T14:16:11.102Z,35.42
2023-01-15T14:19:08.384Z,35.47
2023-01-15T14:22:02.904Z,37.85
2023-01-15T14:25:13.051Z,39.67
2023-01-15T14:27:54.464Z,37.88
2023-01-15T14:31:05.838Z,38.20
2023-01-15T14:33:35.226Z,40.40
2023-01-15T14:36:20.131Z,39.63
2023-01-15T14:38:52.352Z,44.22
2023-01-15T14:41:28.191Z,48.45
2023-01-15T14:43:55.808Z,38.53
2023-01-15T14:46:34.411Z,39.75
2023-01-15T14:49:02.385Z,37.25
2023-01-15T14:51:34.050Z,37.38
2023-01-15T14:54:13.355Z,37.85
2023-01-15T14:56:45.438Z,35.67
2023-01-15T14:59:25.762Z,36.05
2023-01-15T15:01:57.243Z,37.88
2023-01-15T15:04:40.764Z,37.33
2023-01-15T15:07:24.513Z,38.80
2023-01-15T15:10:17.565Z,37.22
2023-01-15T15:15:57.961Z,47.63
2023-01-15T15:18:29.410Z,39.28
2023-01-15T15:20:59.286Z,41.22
2023-01-15T15:23:40.147Z,41.63
2023-01-15T15:26:26.246Z,44.80
2023-01-15T15:29:01.065Z,43.92
2023-01-15T15:31:31.273Z,42.58
2023-01-15T15:33:59.541Z,32.08
2023-01-15T15:36:30.056Z,44.63
2023-01-15T15:38:59.627Z,45.80
2023-01-15T15:41:49.537Z,48.33
2023-01-15T15:44:41.816Z,45.13
2023-01-15T15:47:56.201Z,43.85
2023-01-15T15:50:32.194Z,44.60
2023-01-15T15:53:04.208Z,41.83
2023-01-15T15:55:43.934Z,40.22
2023-01-15T15:58:26.279Z,42.83
2023-01-15T16:00:54.183Z,42.30
2023-01-15T16:03:32.523Z,42.15
2023-01-15T16:05:59.608Z,42.00
2023-01-15T16:08:27.707Z,40.40
2023-01-15T16:11:06.511Z,40.10
2023-01-15T16:13:41.467Z,44.47
2023-01-15T16:16:09.407Z,43.25
2023-01-15T16:18:44.511Z,39.35
2023-01-15T16:21:18.747Z,40.67
2023-01-15T16:23:59.571Z,42.03
2023-01-15T16:26:35.085Z,42.33
2023-01-15T16:29:05.840Z,40.00
2023-01-15T16:31:37.230Z,42.60
2023-01-15T16:34:05.466Z,41.30
2023-01-15T16:36:45.382Z,41.67
2023-01-15T16:39:32.572Z,41.47
2023-01-15T16:42:02.186Z,40.60
2023-01-15T16:44:49.910Z,41.00
2023-01-15T16:47:25.769Z,41.83
2023-01-15T16:49:52.996Z,40.38
2023-01-15T16:52:56.104Z,39.33
2023-01-15T16:55:34.719Z,36.95
2023-01-15T16:58:13.480Z,39.58
2023-01-15T17:00:47.792Z,42.50
2023-01-15T17:03:23.472Z,41.85
2023-01-15T17:05:53.827Z,40.08
2023-01-15T17:08:24.161Z,42.28
2023-01-15T17:11:00.004Z,42.80
2023-01-15T17:13:38.560Z,47.42
2023-01-15T17:16:07.344Z,44.20
2023-01-15T17:18:34.351Z,42.30
2023-01-15T17:21:01.336Z,43.55
2023-01-15T17:23:30.472Z,42.60
2023-01-15T17:25:59.314Z,45.03
2023-01-15T17:28:26.142Z,45.33
2023-01-15T17:30:58.329Z,43.33
2023-01-15T17:33:25.268Z,44.42
2023-01-15T17:35:53.650Z,46.72
2023-01-15T17:38:20.631Z,45.72
2023-01-15T17:40:47.539Z,43.17
2023-01-15T17:43:16.017Z,47.33
2023-01-15T17:45:43.194Z,77.63
2023-01-15T17:48:10.457Z,56.70
2023-01-15T17:50:37.836Z,51.63
2023-01-15T17:53:05.423Z,52.85
2023-01-15T17:55:51.168Z,51.00
2023-01-15T17:58:36.795Z,48.72
2023-01-15T18:01:30.348Z,46.95
2023-01-15T18:04:16.422Z,56.38
2023-01-15T18:06:48.405Z,51.83
2023-01-15T18:09:17.372Z,45.28
2023-01-15T18:11:44.505Z,51.20
2023-01-15T18:14:11.430Z,47.30
2023-01-15T18:16:39.032Z,48.47
2023-01-15T18:19:05.969Z,56.05
2023-01-15T18:21:32.801Z,60.42
2023-01-15T18:24:00.177Z,52.90
2023-01-15T18:26:27.016Z,43.85
2023-01-15T18:28:55.269Z,46.88
2023-01-15T18:31:22.217Z,46.58
2023-01-15T18:33:49.021Z,51.75
2023-01-15T18:36:15.916Z,53.65
2023-01-15T18:38:43.812Z,47.08
2023-01-15T18:41:35.978Z,44.83
2023-01-15T18:44:23.749Z,43.83
2023-01-15T18:46:54.739Z,44.13
2023-01-15T18:49:22.177Z,44.92
2023-01-15T18:52:09.073Z,52.13
2023-01-15T18:54:36.836Z,43.17
2023-01-15T18:57:04.372Z,42.20
2023-01-15T18:59:32.315Z,48.53
2023-01-15T19:01:59.437Z,45.50
2023-01-15T19:04:27.008Z,46.00
2023-01-15T19:06:54.269Z,46.90
2023-01-15T19:09:24.082Z,44.63
2023-01-15T19:11:52.223Z,44.20
2023-01-15T19:14:38.870Z,44.40
2023-01-15T19:17:25.419Z,43.55
2023-01-15T19:19:52.173Z,41.92
2023-01-15T19:22:37.917Z,44.88
2023-01-15T19:25:05.170Z,42.08
2023-01-15T19:27:32.040Z,39.47
2023-01-15T19:30:00.094Z,43.15
2023-01-15T19:32:26.992Z,41.13
2023-01-15T19:34:56.655Z,40.80
2023-01-15T19:37:24.878Z,41.45
2023-01-15T19:39:51.739Z,41.78
2023-01-15T19:42:38.161Z,39.47
2023-01-15T19:45:24.544Z,40.40
2023-01-15T19:48:10.234Z,42.38
2023-01-15T19:50:45.043Z,44.08
2023-01-15T19:53:13.092Z,45.20
2023-01-15T19:55:43.832Z,41.75
2023-01-15T19:58:13.255Z,45.75
2023-01-15T20:00:42.793Z,42.85
2023-01-15T20:03:12.234Z,43.42
2023-01-15T20:05:41.948Z,41.60
2023-01-15T20:08:12.850Z,40.45
2023-01-15T20:10:42.311Z,39.22
2023-01-15T20:13:55.577Z,37.55
2023-01-15T20:16:22.983Z,36.47
2023-01-15T20:18:50.394Z,34.97
2023-01-15T20:21:20.297Z,34.08
2023-01-15T20:23:47.883Z,33.28
2023-01-15T20:26:15.453Z,33.90
2023-01-15T20:28:43.029Z,33.25
2023-01-15T20:31:18.190Z,36.72
2023-01-15T20:33:46.049Z,36.13
2023-01-15T20:36:13.013Z,35.53
2023-01-15T20:38:39.869Z,36.10
2023-01-15T20:41:29.571Z,35.42
2023-01-15T20:44:15.018Z,50.28
2023-01-15T20:46:42.005Z,47.70
2023-01-15T20:49:27.269Z,39.03
2023-01-15T20:51:55.417Z,35.55
2023-01-15T20:54:23.193Z,35.83
2023-01-15T20:56:51.672Z,35.28
2023-01-15T20:59:18.575Z,37.67
2023-01-15T21:01:45.530Z,35.38
2023-01-15T21:04:13.676Z,39.10
2023-01-15T21:06:41.019Z,36.83
2023-01-15T21:09:07.985Z,36.30
2023-01-15T21:11:34.989Z,35.75
2023-01-15T21:14:01.832Z,33.45
2023-01-15T21:16:28.661Z,34.25
2023-01-15T21:18:55.449Z,35.53
2023-01-15T21:21:22.724Z,37.30
2023-01-15T21:23:50.334Z,34.97
2023-01-15T21:26:19.326Z,35.88
2023-01-15T21:28:46.199Z,34.53
2023-01-15T21:31:14.247Z,33.33
2023-01-15T21:33:41.192Z,32.20
